sensor_id;sensor_type;location;lat;lon;timestamp;pressure;altitude;pressure_sealevel;temperature
75822;BMP180;64454;51.984;9.838;2023-04-19T00:01:59;101397.00;;;9.70
75822;BMP180;64454;51.984;9.838;2023-04-19T00:04:26;101393.00;;;9.80
75822;BMP180;64454;51.984;9.838;2023-04-19T00:06:54;101392.00;;;10.10
75822;BMP180;64454;51.984;9.838;2023-04-19T00:09:21;101383.00;;;9.90
75822;BMP180;64454;51.984;9.838;2023-04-19T00:11:48;101382.00;;;9.90
75822;BMP180;64454;51.984;9.838;2023-04-19T00:14:16;101385.00;;;10.00
75822;BMP180;64454;51.984;9.838;2023-04-19T00:16:46;101380.00;;;9.80
75822;BMP180;64454;51.984;9.838;2023-04-19T00:19:13;101382.00;;;9.80
75822;BMP180;64454;51.984;9.838;2023-04-19T00:21:40;101386.00;;;10.20
75822;BMP180;64454;51.984;9.838;2023-04-19T00:24:08;101380.00;;;9.80
75822;BMP180;64454;51.984;9.838;2023-04-19T00:26:34;101366.00;;;10.00
75822;BMP180;64454;51.984;9.838;2023-04-19T00:29:01;101366.00;;;9.60
75822;BMP180;64454;51.984;9.838;2023-04-19T00:31:29;101374.00;;;9.70
75822;BMP180;64454;51.984;9.838;2023-04-19T00:33:57;101372.00;;;9.70
75822;BMP180;64454;51.984;9.838;2023-04-19T00:36:24;101358.00;;;9.60
75822;BMP180;64454;51.984;9.838;2023-04-19T00:38:51;101362.00;;;9.60
75822;BMP180;64454;51.984;9.838;2023-04-19T00:41:18;101365.00;;;9.70
75822;BMP180;64454;51.984;9.838;2023-04-19T00:43:44;101367.00;;;9.70
75822;BMP180;64454;51.984;9.838;2023-04-19T00:46:12;101374.00;;;9.70
75822;BMP180;64454;51.984;9.838;2023-04-19T00:48:39;101356.00;;;9.70
75822;BMP180;64454;51.984;9.838;2023-04-19T00:51:08;101360.00;;;9.90
75822;BMP180;64454;51.984;9.838;2023-04-19T00:53:37;101358.00;;;9.80
75822;BMP180;64454;51.984;9.838;2023-04-19T00:56:05;101352.00;;;9.80
75822;BMP180;64454;51.984;9.838;2023-04-19T00:58:32;101348.00;;;9.90
75822;BMP180;64454;51.984;9.838;2023-04-19T01:00:59;101361.00;;;9.90
75822;BMP180;64454;51.984;9.838;2023-04-19T01:03:25;101343.00;;;9.70
75822;BMP180;64454;51.984;9.838;2023-04-19T01:05:54;101347.00;;;10.10
75822;BMP180;64454;51.984;9.838;2023-04-19T01:08:22;101346.00;;;10.00
75822;BMP180;64454;51.984;9.838;2023-04-19T01:10:49;101348.00;;;9.50
75822;BMP180;64454;51.984;9.838;2023-04-19T01:13:16;101351.00;;;9.50
75822;BMP180;64454;51.984;9.838;2023-04-19T01:15:43;101358.00;;;9.60
75822;BMP180;64454;51.984;9.838;2023-04-19T01:18:10;101347.00;;;9.70
75822;BMP180;64454;51.984;9.838;2023-04-19T01:20:38;101352.00;;;9.70
75822;BMP180;64454;51.984;9.838;2023-04-19T01:23:06;101347.00;;;10.00
75822;BMP180;64454;51.984;9.838;2023-04-19T01:25:36;101351.00;;;9.90
75822;BMP180;64454;51.984;9.838;2023-04-19T01:28:03;101348.00;;;9.80
75822;BMP180;64454;51.984;9.838;2023-04-19T01:30:30;101344.00;;;9.60
75822;BMP180;64454;51.984;9.838;2023-04-19T01:32:57;101355.00;;;9.60
75822;BMP180;64454;51.984;9.838;2023-04-19T01:35:24;101365.00;;;9.40
75822;BMP180;64454;51.984;9.838;2023-04-19T01:37:51;101360.00;;;9.20
75822;BMP180;64454;51.984;9.838;2023-04-19T01:40:23;101355.00;;;9.20
75822;BMP180;64454;51.984;9.838;2023-04-19T01:42:50;101350.00;;;9.20
75822;BMP180;64454;51.984;9.838;2023-04-19T01:45:17;101355.00;;;9.20
75822;BMP180;64454;51.984;9.838;2023-04-19T01:47:43;101356.00;;;9.10
75822;BMP180;64454;51.984;9.838;2023-04-19T01:50:10;101358.00;;;8.80
75822;BMP180;64454;51.984;9.838;2023-04-19T01:52:37;101355.00;;;9.10
75822;BMP180;64454;51.984;9.838;2023-04-19T01:55:04;101358.00;;;9.00
75822;BMP180;64454;51.984;9.838;2023-04-19T01:57:32;101352.00;;;8.70
75822;BMP180;64454;51.984;9.838;2023-04-19T02:00:00;101357.00;;;8.50
75822;BMP180;64454;51.984;9.838;2023-04-19T02:02:26;101357.00;;;8.30
75822;BMP180;64454;51.984;9.838;2023-04-19T02:04:53;101366.00;;;8.50
75822;BMP180;64454;51.984;9.838;2023-04-19T02:07:20;101351.00;;;8.40
75822;BMP180;64454;51.984;9.838;2023-04-19T02:09:47;101360.00;;;8.20
75822;BMP180;64454;51.984;9.838;2023-04-19T02:12:14;101351.00;;;8.40
75822;BMP180;64454;51.984;9.838;2023-04-19T02:14:43;101355.00;;;8.40
75822;BMP180;64454;51.984;9.838;2023-04-19T02:17:09;101365.00;;;8.30
75822;BMP180;64454;51.984;9.838;2023-04-19T02:19:36;101357.00;;;8.40
75822;BMP180;64454;51.984;9.838;2023-04-19T02:22:03;101365.00;;;8.20
75822;BMP180;64454;51.984;9.838;2023-04-19T02:24:30;101355.00;;;8.30
75822;BMP180;64454;51.984;9.838;2023-04-19T02:26:57;101350.00;;;8.20
75822;BMP180;64454;51.984;9.838;2023-04-19T02:29:24;101349.00;;;8.10
75822;BMP180;64454;51.984;9.838;2023-04-19T02:31:52;101350.00;;;7.90
75822;BMP180;64454;51.984;9.838;2023-04-19T02:34:20;101356.00;;;7.80
75822;BMP180;64454;51.984;9.838;2023-04-19T02:36:46;101355.00;;;7.60
75822;BMP180;64454;51.984;9.838;2023-04-19T02:39:14;101346.00;;;7.70
75822;BMP180;64454;51.984;9.838;2023-04-19T02:41:43;101349.00;;;7.80
75822;BMP180;64454;51.984;9.838;2023-04-19T02:44:10;101351.00;;;8.00
75822;BMP180;64454;51.984;9.838;2023-04-19T02:46:37;101349.00;;;7.80
75822;BMP180;64454;51.984;9.838;2023-04-19T02:49:05;101352.00;;;7.60
75822;BMP180;64454;51.984;9.838;2023-04-19T02:51:32;101359.00;;;7.50
75822;BMP180;64454;51.984;9.838;2023-04-19T02:53:59;101357.00;;;6.70
75822;BMP180;64454;51.984;9.838;2023-04-19T02:56:26;101357.00;;;7.40
75822;BMP180;64454;51.984;9.838;2023-04-19T02:58:52;101351.00;;;7.20
75822;BMP180;64454;51.984;9.838;2023-04-19T03:01:21;101362.00;;;6.90
75822;BMP180;64454;51.984;9.838;2023-04-19T03:03:48;101364.00;;;6.90
75822;BMP180;64454;51.984;9.838;2023-04-19T03:06:16;101356.00;;;6.90
75822;BMP180;64454;51.984;9.838;2023-04-19T03:08:43;101361.00;;;7.50
75822;BMP180;64454;51.984;9.838;2023-04-19T03:11:10;101361.00;;;7.30
75822;BMP180;64454;51.984;9.838;2023-04-19T03:13:37;101359.00;;;7.20
75822;BMP180;64454;51.984;9.838;2023-04-19T03:16:05;101356.00;;;6.80
75822;BMP180;64454;51.984;9.838;2023-04-19T03:18:32;101358.00;;;6.80
75822;BMP180;64454;51.984;9.838;2023-04-19T03:20:59;101357.00;;;7.20
75822;BMP180;64454;51.984;9.838;2023-04-19T03:23:27;101351.00;;;6.80
75822;BMP180;64454;51.984;9.838;2023-04-19T03:25:54;101349.00;;;6.80
75822;BMP180;64454;51.984;9.838;2023-04-19T03:28:21;101346.00;;;6.80
75822;BMP180;64454;51.984;9.838;2023-04-19T03:30:47;101351.00;;;6.90
75822;BMP180;64454;51.984;9.838;2023-04-19T03:33:14;101344.00;;;7.20
75822;BMP180;64454;51.984;9.838;2023-04-19T03:35:42;101334.00;;;7.00
75822;BMP180;64454;51.984;9.838;2023-04-19T03:38:10;101337.00;;;7.00
75822;BMP180;64454;51.984;9.838;2023-04-19T03:40:38;101341.00;;;6.70
75822;BMP180;64454;51.984;9.838;2023-04-19T03:43:05;101342.00;;;6.20
75822;BMP180;64454;51.984;9.838;2023-04-19T03:45:31;101337.00;;;6.60
75822;BMP180;64454;51.984;9.838;2023-04-19T03:47:58;101346.00;;;6.70
75822;BMP180;64454;51.984;9.838;2023-04-19T03:50:25;101341.00;;;6.40
75822;BMP180;64454;51.984;9.838;2023-04-19T03:52:52;101341.00;;;6.50
75822;BMP180;64454;51.984;9.838;2023-04-19T03:55:19;101340.00;;;6.60
75822;BMP180;64454;51.984;9.838;2023-04-19T03:57:47;101335.00;;;6.70
75822;BMP180;64454;51.984;9.838;2023-04-19T04:00:14;101337.00;;;6.20
75822;BMP180;64454;51.984;9.838;2023-04-19T04:02:41;101340.00;;;6.30
75822;BMP180;64454;51.984;9.838;2023-04-19T04:05:08;101337.00;;;6.40
75822;BMP180;64454;51.984;9.838;2023-04-19T04:07:35;101339.00;;;6.10
75822;BMP180;64454;51.984;9.838;2023-04-19T04:10:02;101347.00;;;6.50
75822;BMP180;64454;51.984;9.838;2023-04-19T04:12:29;101342.00;;;6.40
75822;BMP180;64454;51.984;9.838;2023-04-19T04:14:58;101338.00;;;6.10
75822;BMP180;64454;51.984;9.838;2023-04-19T04:17:24;101338.00;;;6.40
75822;BMP180;64454;51.984;9.838;2023-04-19T04:19:51;101342.00;;;6.10
75822;BMP180;64454;51.984;9.838;2023-04-19T04:22:19;101341.00;;;6.30
75822;BMP180;64454;51.984;9.838;2023-04-19T04:24:46;101341.00;;;6.20
75822;BMP180;64454;51.984;9.838;2023-04-19T04:27:13;101355.00;;;6.30
75822;BMP180;64454;51.984;9.838;2023-04-19T04:29:44;101351.00;;;6.20
75822;BMP180;64454;51.984;9.838;2023-04-19T04:32:13;101350.00;;;6.40
75822;BMP180;64454;51.984;9.838;2023-04-19T04:34:42;101351.00;;;6.20
75822;BMP180;64454;51.984;9.838;2023-04-19T04:37:10;101352.00;;;6.40
75822;BMP180;64454;51.984;9.838;2023-04-19T04:39:37;101364.00;;;6.20
75822;BMP180;64454;51.984;9.838;2023-04-19T04:42:04;101351.00;;;6.40
75822;BMP180;64454;51.984;9.838;2023-04-19T04:44:32;101348.00;;;6.10
75822;BMP180;64454;51.984;9.838;2023-04-19T04:47:00;101356.00;;;6.10
75822;BMP180;64454;51.984;9.838;2023-04-19T04:49:28;101358.00;;;6.30
75822;BMP180;64454;51.984;9.838;2023-04-19T04:51:55;101357.00;;;6.20
75822;BMP180;64454;51.984;9.838;2023-04-19T04:54:22;101352.00;;;6.60
75822;BMP180;64454;51.984;9.838;2023-04-19T04:56:48;101358.00;;;6.30
75822;BMP180;64454;51.984;9.838;2023-04-19T04:59:16;101360.00;;;6.30
75822;BMP180;64454;51.984;9.838;2023-04-19T05:01:43;101356.00;;;6.30
75822;BMP180;64454;51.984;9.838;2023-04-19T05:04:10;101352.00;;;6.40
75822;BMP180;64454;51.984;9.838;2023-04-19T05:06:38;101360.00;;;6.20
75822;BMP180;64454;51.984;9.838;2023-04-19T05:09:06;101359.00;;;6.50
75822;BMP180;64454;51.984;9.838;2023-04-19T05:11:33;101362.00;;;6.50
75822;BMP180;64454;51.984;9.838;2023-04-19T05:14:00;101361.00;;;6.50
75822;BMP180;64454;51.984;9.838;2023-04-19T05:16:27;101359.00;;;6.60
75822;BMP180;64454;51.984;9.838;2023-04-19T05:18:54;101365.00;;;6.50
75822;BMP180;64454;51.984;9.838;2023-04-19T05:21:21;101360.00;;;6.70
75822;BMP180;64454;51.984;9.838;2023-04-19T05:23:49;101359.00;;;6.50
75822;BMP180;64454;51.984;9.838;2023-04-19T05:26:18;101360.00;;;6.80
75822;BMP180;64454;51.984;9.838;2023-04-19T05:28:45;101351.00;;;7.00
75822;BMP180;64454;51.984;9.838;2023-04-19T05:31:11;101365.00;;;6.50
75822;BMP180;64454;51.984;9.838;2023-04-19T05:33:38;101359.00;;;6.90
75822;BMP180;64454;51.984;9.838;2023-04-19T05:36:06;101358.00;;;6.90
75822;BMP180;64454;51.984;9.838;2023-04-19T05:38:33;101361.00;;;7.00
75822;BMP180;64454;51.984;9.838;2023-04-19T05:41:01;101357.00;;;7.20
75822;BMP180;64454;51.984;9.838;2023-04-19T05:43:28;101366.00;;;7.00
75822;BMP180;64454;51.984;9.838;2023-04-19T05:45:55;101358.00;;;7.10
75822;BMP180;64454;51.984;9.838;2023-04-19T05:48:22;101358.00;;;7.30
75822;BMP180;64454;51.984;9.838;2023-04-19T05:50:50;101358.00;;;7.60
75822;BMP180;64454;51.984;9.838;2023-04-19T05:53:18;101361.00;;;7.40
75822;BMP180;64454;51.984;9.838;2023-04-19T05:55:45;101363.00;;;7.80
75822;BMP180;64454;51.984;9.838;2023-04-19T05:58:14;101366.00;;;7.50
75822;BMP180;64454;51.984;9.838;2023-04-19T06:00:41;101360.00;;;7.60
75822;BMP180;64454;51.984;9.838;2023-04-19T06:03:08;101347.00;;;7.70
75822;BMP180;64454;51.984;9.838;2023-04-19T06:05:35;101347.00;;;7.60
75822;BMP180;64454;51.984;9.838;2023-04-19T06:08:02;101340.00;;;7.70
75822;BMP180;64454;51.984;9.838;2023-04-19T06:10:29;101346.00;;;7.90
75822;BMP180;64454;51.984;9.838;2023-04-19T06:12:56;101350.00;;;7.90
75822;BMP180;64454;51.984;9.838;2023-04-19T06:15:24;101350.00;;;8.00
75822;BMP180;64454;51.984;9.838;2023-04-19T06:17:51;101340.00;;;8.00
75822;BMP180;64454;51.984;9.838;2023-04-19T06:20:18;101343.00;;;8.10
75822;BMP180;64454;51.984;9.838;2023-04-19T06:22:45;101346.00;;;8.30
75822;BMP180;64454;51.984;9.838;2023-04-19T06:25:12;101346.00;;;8.40
75822;BMP180;64454;51.984;9.838;2023-04-19T06:27:39;101345.00;;;8.70
75822;BMP180;64454;51.984;9.838;2023-04-19T06:30:07;101347.00;;;8.50
75822;BMP180;64454;51.984;9.838;2023-04-19T06:32:35;101338.00;;;8.50
75822;BMP180;64454;51.984;9.838;2023-04-19T06:35:05;101335.00;;;8.10
75822;BMP180;64454;51.984;9.838;2023-04-19T06:37:32;101339.00;;;8.40
75822;BMP180;64454;51.984;9.838;2023-04-19T06:39:59;101344.00;;;8.70
75822;BMP180;64454;51.984;9.838;2023-04-19T06:42:26;101338.00;;;9.00
75822;BMP180;64454;51.984;9.838;2023-04-19T06:44:53;101334.00;;;8.90
75822;BMP180;64454;51.984;9.838;2023-04-19T06:47:21;101336.00;;;8.70
75822;BMP180;64454;51.984;9.838;2023-04-19T06:49:50;101336.00;;;9.40
75822;BMP180;64454;51.984;9.838;2023-04-19T06:52:16;101326.00;;;9.70
75822;BMP180;64454;51.984;9.838;2023-04-19T06:54:46;101319.00;;;9.50
75822;BMP180;64454;51.984;9.838;2023-04-19T06:57:14;101324.00;;;10.30
75822;BMP180;64454;51.984;9.838;2023-04-19T06:59:41;101325.00;;;10.10
75822;BMP180;64454;51.984;9.838;2023-04-19T07:02:08;101316.00;;;10.00
75822;BMP180;64454;51.984;9.838;2023-04-19T07:04:35;101320.00;;;10.00
75822;BMP180;64454;51.984;9.838;2023-04-19T07:07:03;101315.00;;;10.20
75822;BMP180;64454;51.984;9.838;2023-04-19T07:09:30;101310.00;;;10.40
75822;BMP180;64454;51.984;9.838;2023-04-19T07:11:57;101309.00;;;10.60
75822;BMP180;64454;51.984;9.838;2023-04-19T07:14:24;101298.00;;;10.60
75822;BMP180;64454;51.984;9.838;2023-04-19T07:16:51;101301.00;;;11.20
75822;BMP180;64454;51.984;9.838;2023-04-19T07:19:19;101295.00;;;11.60
75822;BMP180;64454;51.984;9.838;2023-04-19T07:21:47;101298.00;;;12.10
75822;BMP180;64454;51.984;9.838;2023-04-19T07:24:17;101295.00;;;12.70
75822;BMP180;64454;51.984;9.838;2023-04-19T07:26:44;101297.00;;;13.00
75822;BMP180;64454;51.984;9.838;2023-04-19T07:29:11;101288.00;;;13.00
75822;BMP180;64454;51.984;9.838;2023-04-19T07:31:38;101285.00;;;13.10
75822;BMP180;64454;51.984;9.838;2023-04-19T07:34:06;101286.00;;;14.00
75822;BMP180;64454;51.984;9.838;2023-04-19T07:36:33;101283.00;;;13.50
75822;BMP180;64454;51.984;9.838;2023-04-19T07:39:01;101284.00;;;13.30
75822;BMP180;64454;51.984;9.838;2023-04-19T07:41:32;101272.00;;;13.80
75822;BMP180;64454;51.984;9.838;2023-04-19T07:43:59;101270.00;;;15.10
75822;BMP180;64454;51.984;9.838;2023-04-19T07:46:26;101267.00;;;15.60
75822;BMP180;64454;51.984;9.838;2023-04-19T07:48:53;101272.00;;;15.10
75822;BMP180;64454;51.984;9.838;2023-04-19T07:51:20;101273.00;;;15.80
75822;BMP180;64454;51.984;9.838;2023-04-19T07:53:49;101264.00;;;16.30
75822;BMP180;64454;51.984;9.838;2023-04-19T07:56:15;101269.00;;;16.50
75822;BMP180;64454;51.984;9.838;2023-04-19T07:58:45;101267.00;;;17.40
75822;BMP180;64454;51.984;9.838;2023-04-19T08:01:12;101267.00;;;16.80
75822;BMP180;64454;51.984;9.838;2023-04-19T08:03:39;101265.00;;;17.30
75822;BMP180;64454;51.984;9.838;2023-04-19T08:06:06;101263.00;;;17.50
75822;BMP180;64454;51.984;9.838;2023-04-19T08:08:34;101263.00;;;18.20
75822;BMP180;64454;51.984;9.838;2023-04-19T08:11:01;101263.00;;;18.30
75822;BMP180;64454;51.984;9.838;2023-04-19T08:13:28;101259.00;;;18.40
75822;BMP180;64454;51.984;9.838;2023-04-19T08:15:56;101257.00;;;18.20
75822;BMP180;64454;51.984;9.838;2023-04-19T08:18:23;101256.00;;;18.70
75822;BMP180;64454;51.984;9.838;2023-04-19T08:20:50;101256.00;;;19.00
75822;BMP180;64454;51.984;9.838;2023-04-19T08:23:17;101255.00;;;17.70
75822;BMP180;64454;51.984;9.838;2023-04-19T08:25:44;101255.00;;;19.20
75822;BMP180;64454;51.984;9.838;2023-04-19T08:28:10;101260.00;;;20.10
75822;BMP180;64454;51.984;9.838;2023-04-19T08:30:38;101253.00;;;20.60
75822;BMP180;64454;51.984;9.838;2023-04-19T08:33:06;101271.00;;;20.40
75822;BMP180;64454;51.984;9.838;2023-04-19T08:35:34;101273.00;;;22.50
75822;BMP180;64454;51.984;9.838;2023-04-19T08:38:01;101263.00;;;20.10
75822;BMP180;64454;51.984;9.838;2023-04-19T08:40:29;101250.00;;;22.20
75822;BMP180;64454;51.984;9.838;2023-04-19T08:42:56;101257.00;;;21.00
75822;BMP180;64454;51.984;9.838;2023-04-19T08:45:26;101260.00;;;21.80
75822;BMP180;64454;51.984;9.838;2023-04-19T08:47:56;101243.00;;;22.10
75822;BMP180;64454;51.984;9.838;2023-04-19T08:50:26;101254.00;;;21.50
75822;BMP180;64454;51.984;9.838;2023-04-19T08:52:52;101259.00;;;22.40
75822;BMP180;64454;51.984;9.838;2023-04-19T08:55:19;101254.00;;;23.70
75822;BMP180;64454;51.984;9.838;2023-04-19T08:57:46;101248.00;;;23.20
75822;BMP180;64454;51.984;9.838;2023-04-19T09:00:14;101243.00;;;23.30
75822;BMP180;64454;51.984;9.838;2023-04-19T09:02:46;101239.00;;;24.70
75822;BMP180;64454;51.984;9.838;2023-04-19T09:05:14;101251.00;;;22.90
75822;BMP180;64454;51.984;9.838;2023-04-19T09:07:43;101240.00;;;24.30
75822;BMP180;64454;51.984;9.838;2023-04-19T09:10:12;101239.00;;;25.00
75822;BMP180;64454;51.984;9.838;2023-04-19T09:12:40;101236.00;;;24.60
75822;BMP180;64454;51.984;9.838;2023-04-19T09:15:09;101238.00;;;24.40
75822;BMP180;64454;51.984;9.838;2023-04-19T09:17:38;101237.00;;;25.30
75822;BMP180;64454;51.984;9.838;2023-04-19T09:20:06;101222.00;;;24.10
75822;BMP180;64454;51.984;9.838;2023-04-19T09:22:33;101230.00;;;25.20
75822;BMP180;64454;51.984;9.838;2023-04-19T09:25:01;101216.00;;;25.60
75822;BMP180;64454;51.984;9.838;2023-04-19T09:27:31;101226.00;;;26.00
75822;BMP180;64454;51.984;9.838;2023-04-19T09:30:00;101214.00;;;24.50
75822;BMP180;64454;51.984;9.838;2023-04-19T09:32:28;101205.00;;;24.00
75822;BMP180;64454;51.984;9.838;2023-04-19T09:34:58;101205.00;;;26.10
75822;BMP180;64454;51.984;9.838;2023-04-19T09:37:25;101201.00;;;26.60
75822;BMP180;64454;51.984;9.838;2023-04-19T09:39:53;101197.00;;;28.30
75822;BMP180;64454;51.984;9.838;2023-04-19T09:42:21;101190.00;;;26.10
75822;BMP180;64454;51.984;9.838;2023-04-19T09:44:58;101178.00;;;26.30
75822;BMP180;64454;51.984;9.838;2023-04-19T09:47:26;101179.00;;;25.90
75822;BMP180;64454;51.984;9.838;2023-04-19T09:50:05;101179.00;;;26.90
75822;BMP180;64454;51.984;9.838;2023-04-19T09:52:33;101176.00;;;26.10
75822;BMP180;64454;51.984;9.838;2023-04-19T09:55:01;101165.00;;;26.30
75822;BMP180;64454;51.984;9.838;2023-04-19T09:57:31;101169.00;;;26.30
75822;BMP180;64454;51.984;9.838;2023-04-19T10:00:00;101174.00;;;24.60
75822;BMP180;64454;51.984;9.838;2023-04-19T10:02:31;101153.00;;;25.70
75822;BMP180;64454;51.984;9.838;2023-04-19T10:04:58;101146.00;;;27.50
75822;BMP180;64454;51.984;9.838;2023-04-19T10:07:26;101160.00;;;26.50
75822;BMP180;64454;51.984;9.838;2023-04-19T10:09:55;101160.00;;;27.00
75822;BMP180;64454;51.984;9.838;2023-04-19T10:12:24;101144.00;;;29.10
75822;BMP180;64454;51.984;9.838;2023-04-19T10:14:54;101139.00;;;26.80
75822;BMP180;64454;51.984;9.838;2023-04-19T10:17:23;101138.00;;;25.40
75822;BMP180;64454;51.984;9.838;2023-04-19T10:20:04;101140.00;;;24.30
75822;BMP180;64454;51.984;9.838;2023-04-19T10:22:33;101141.00;;;24.90
75822;BMP180;64454;51.984;9.838;2023-04-19T10:25:10;101131.00;;;26.10
75822;BMP180;64454;51.984;9.838;2023-04-19T10:27:38;101130.00;;;27.20
75822;BMP180;64454;51.984;9.838;2023-04-19T10:30:17;101131.00;;;26.80
75822;BMP180;64454;51.984;9.838;2023-04-19T10:32:51;101133.00;;;27.90
75822;BMP180;64454;51.984;9.838;2023-04-19T10:35:20;101131.00;;;27.70
75822;BMP180;64454;51.984;9.838;2023-04-19T10:38:08;101133.00;;;26.70
75822;BMP180;64454;51.984;9.838;2023-04-19T10:40:58;101124.00;;;27.10
75822;BMP180;64454;51.984;9.838;2023-04-19T10:43:28;101131.00;;;27.20
75822;BMP180;64454;51.984;9.838;2023-04-19T10:45:59;101105.00;;;27.50
75822;BMP180;64454;51.984;9.838;2023-04-19T10:48:36;101118.00;;;27.10
75822;BMP180;64454;51.984;9.838;2023-04-19T10:51:10;101113.00;;;26.60
75822;BMP180;64454;51.984;9.838;2023-04-19T10:53:48;101116.00;;;27.30
75822;BMP180;64454;51.984;9.838;2023-04-19T10:56:17;101107.00;;;27.90
75822;BMP180;64454;51.984;9.838;2023-04-19T10:59:18;101104.00;;;26.60
75822;BMP180;64454;51.984;9.838;2023-04-19T11:01:52;101084.00;;;27.40
75822;BMP180;64454;51.984;9.838;2023-04-19T11:04:23;101074.00;;;26.10
75822;BMP180;64454;51.984;9.838;2023-04-19T11:07:09;101072.00;;;26.80
75822;BMP180;64454;51.984;9.838;2023-04-19T11:09:38;101068.00;;;27.30
75822;BMP180;64454;51.984;9.838;2023-04-19T11:12:10;101066.00;;;25.80
75822;BMP180;64454;51.984;9.838;2023-04-19T11:14:40;101057.00;;;25.90
75822;BMP180;64454;51.984;9.838;2023-04-19T11:17:16;101054.00;;;22.30
75822;BMP180;64454;51.984;9.838;2023-04-19T11:19:44;101065.00;;;24.00
75822;BMP180;64454;51.984;9.838;2023-04-19T11:22:23;101054.00;;;25.40
75822;BMP180;64454;51.984;9.838;2023-04-19T11:24:50;101037.00;;;26.30
75822;BMP180;64454;51.984;9.838;2023-04-19T11:27:17;101041.00;;;26.20
75822;BMP180;64454;51.984;9.838;2023-04-19T11:29:43;101034.00;;;25.30
75822;BMP180;64454;51.984;9.838;2023-04-19T11:32:10;101021.00;;;26.00
75822;BMP180;64454;51.984;9.838;2023-04-19T11:34:39;101018.00;;;25.40
75822;BMP180;64454;51.984;9.838;2023-04-19T11:37:15;101020.00;;;25.70
75822;BMP180;64454;51.984;9.838;2023-04-19T11:39:45;101011.00;;;24.60
75822;BMP180;64454;51.984;9.838;2023-04-19T11:42:17;101003.00;;;26.50
75822;BMP180;64454;51.984;9.838;2023-04-19T11:44:49;100992.00;;;25.10
75822;BMP180;64454;51.984;9.838;2023-04-19T11:47:16;101009.00;;;25.20
75822;BMP180;64454;51.984;9.838;2023-04-19T11:49:43;101007.00;;;25.90
75822;BMP180;64454;51.984;9.838;2023-04-19T11:52:11;101012.00;;;25.70
75822;BMP180;64454;51.984;9.838;2023-04-19T11:54:39;100994.00;;;24.30
75822;BMP180;64454;51.984;9.838;2023-04-19T11:57:08;101003.00;;;24.20
75822;BMP180;64454;51.984;9.838;2023-04-19T11:59:35;101011.00;;;23.80
75822;BMP180;64454;51.984;9.838;2023-04-19T12:02:07;100998.00;;;23.30
75822;BMP180;64454;51.984;9.838;2023-04-19T12:04:34;101010.00;;;23.10
75822;BMP180;64454;51.984;9.838;2023-04-19T12:07:03;100997.00;;;23.50
75822;BMP180;64454;51.984;9.838;2023-04-19T12:09:33;101006.00;;;23.80
75822;BMP180;64454;51.984;9.838;2023-04-19T12:12:02;100994.00;;;25.00
75822;BMP180;64454;51.984;9.838;2023-04-19T12:14:30;101001.00;;;24.50
75822;BMP180;64454;51.984;9.838;2023-04-19T12:17:09;101000.00;;;23.30
75822;BMP180;64454;51.984;9.838;2023-04-19T12:19:41;101000.00;;;23.80
75822;BMP180;64454;51.984;9.838;2023-04-19T12:22:11;100990.00;;;23.90
75822;BMP180;64454;51.984;9.838;2023-04-19T12:24:38;100982.00;;;22.90
75822;BMP180;64454;51.984;9.838;2023-04-19T12:27:09;100977.00;;;22.80
75822;BMP180;64454;51.984;9.838;2023-04-19T12:29:36;100974.00;;;22.10
75822;BMP180;64454;51.984;9.838;2023-04-19T12:32:05;100978.00;;;22.60
75822;BMP180;64454;51.984;9.838;2023-04-19T12:34:32;100978.00;;;21.50
75822;BMP180;64454;51.984;9.838;2023-04-19T12:36:58;100957.00;;;21.80
75822;BMP180;64454;51.984;9.838;2023-04-19T12:39:25;100965.00;;;22.70
75822;BMP180;64454;51.984;9.838;2023-04-19T12:41:53;100965.00;;;22.20
75822;BMP180;64454;51.984;9.838;2023-04-19T12:44:22;100960.00;;;20.30
75822;BMP180;64454;51.984;9.838;2023-04-19T12:46:49;100956.00;;;21.40
75822;BMP180;64454;51.984;9.838;2023-04-19T12:49:18;100947.00;;;22.40
75822;BMP180;64454;51.984;9.838;2023-04-19T12:51:46;100983.00;;;21.00
75822;BMP180;64454;51.984;9.838;2023-04-19T12:54:14;100989.00;;;19.70
75822;BMP180;64454;51.984;9.838;2023-04-19T12:56:42;100975.00;;;20.10
75822;BMP180;64454;51.984;9.838;2023-04-19T12:59:08;100960.00;;;19.70
75822;BMP180;64454;51.984;9.838;2023-04-19T13:01:37;100955.00;;;20.00
75822;BMP180;64454;51.984;9.838;2023-04-19T13:04:04;100955.00;;;19.60
75822;BMP180;64454;51.984;9.838;2023-04-19T13:06:32;100940.00;;;20.30
75822;BMP180;64454;51.984;9.838;2023-04-19T13:08:59;100939.00;;;20.50
75822;BMP180;64454;51.984;9.838;2023-04-19T13:11:26;100968.00;;;20.20
75822;BMP180;64454;51.984;9.838;2023-04-19T13:13:52;100927.00;;;20.30
75822;BMP180;64454;51.984;9.838;2023-04-19T13:16:19;100931.00;;;19.50
75822;BMP180;64454;51.984;9.838;2023-04-19T13:18:48;100924.00;;;19.70
75822;BMP180;64454;51.984;9.838;2023-04-19T13:21:15;100934.00;;;19.60
75822;BMP180;64454;51.984;9.838;2023-04-19T13:23:43;100925.00;;;19.70
75822;BMP180;64454;51.984;9.838;2023-04-19T13:26:10;100929.00;;;19.00
75822;BMP180;64454;51.984;9.838;2023-04-19T13:28:39;100925.00;;;19.70
75822;BMP180;64454;51.984;9.838;2023-04-19T13:31:05;100924.00;;;19.80
75822;BMP180;64454;51.984;9.838;2023-04-19T13:33:32;100902.00;;;20.60
75822;BMP180;64454;51.984;9.838;2023-04-19T13:36:01;100912.00;;;20.20
75822;BMP180;64454;51.984;9.838;2023-04-19T13:38:28;100912.00;;;20.60
75822;BMP180;64454;51.984;9.838;2023-04-19T13:40:54;100893.00;;;20.30
75822;BMP180;64454;51.984;9.838;2023-04-19T13:43:21;100902.00;;;20.30
75822;BMP180;64454;51.984;9.838;2023-04-19T13:45:48;100902.00;;;20.10
75822;BMP180;64454;51.984;9.838;2023-04-19T13:48:15;100898.00;;;20.70
75822;BMP180;64454;51.984;9.838;2023-04-19T13:50:42;100891.00;;;20.60
75822;BMP180;64454;51.984;9.838;2023-04-19T13:53:10;100919.00;;;20.20
75822;BMP180;64454;51.984;9.838;2023-04-19T13:55:37;100916.00;;;18.90
75822;BMP180;64454;51.984;9.838;2023-04-19T13:58:04;100913.00;;;17.60
75822;BMP180;64454;51.984;9.838;2023-04-19T14:00:31;100904.00;;;17.80
75822;BMP180;64454;51.984;9.838;2023-04-19T14:02:58;100899.00;;;17.50
75822;BMP180;64454;51.984;9.838;2023-04-19T14:05:25;100914.00;;;17.80
75822;BMP180;64454;51.984;9.838;2023-04-19T14:07:52;100916.00;;;17.60